sensor_id;sensor_type;location;lat;lon;timestamp;temperature;humidity
2162;DHT22;1087;50.226;8.682;2022-11-21T00:00:54;7.30;99.90
2162;DHT22;1087;50.226;8.682;2022-11-21T00:03:20;7.30;99.90
2162;DHT22;1087;50.226;8.682;2022-11-21T00:05:47;7.30;99.90
2162;DHT22;1087;50.226;8.682;2022-11-21T00:08:15;7.20;99.90
2162;DHT22;1087;50.226;8.682;2022-11-21T00:10:41;7.20;99.90
2162;DHT22;1087;50.226;8.682;2022-11-21T00:13:11;7.30;99.90
2162;DHT22;1087;50.226;8.682;2022-11-21T00:15:37;7.20;99.90
2162;DHT22;1087;50.226;8.682;2022-11-21T00:18:02;7.20;99.90
2162;DHT22;1087;50.226;8.682;2022-11-21T00:20:28;7.20;99.90
2162;DHT22;1087;50.226;8.682;2022-11-21T00:22:54;7.30;99.90
2162;DHT22;1087;50.226;8.682;2022-11-21T00:25:19;7.30;99.90
2162;DHT22;1087;50.226;8.682;2022-11-21T00:27:45;7.30;99.90
2162;DHT22;1087;50.226;8.682;2022-11-21T00:30:11;7.40;99.90
2162;DHT22;1087;50.226;8.682;2022-11-21T00:32:37;7.40;99.90
2162;DHT22;1087;50.226;8.682;2022-11-21T00:35:03;7.30;99.90
2162;DHT22;1087;50.226;8.682;2022-11-21T00:37:28;7.40;99.90
2162;DHT22;1087;50.226;8.682;2022-11-21T00:39:55;7.30;99.90
2162;DHT22;1087;50.226;8.682;2022-11-21T00:42:21;7.30;99.90
2162;DHT22;1087;50.226;8.682;2022-11-21T00:44:46;7.30;99.90
2162;DHT22;1087;50.226;8.682;2022-11-21T00:47:12;7.40;99.90
2162;DHT22;1087;50.226;8.682;2022-11-21T00:49:37;7.30;99.90
2162;DHT22;1087;50.226;8.682;2022-11-21T00:52:03;7.30;99.90
2162;DHT22;1087;50.226;8.682;2022-11-21T00:54:28;7.30;99.90
2162;DHT22;1087;50.226;8.682;2022-11-21T00:56:54;7.30;99.90
2162;DHT22;1087;50.226;8.682;2022-11-21T00:59:19;7.30;99.90
2162;DHT22;1087;50.226;8.682;2022-11-21T01:01:45;7.30;99.90
2162;DHT22;1087;50.226;8.682;2022-11-21T01:04:10;7.30;99.90
2162;DHT22;1087;50.226;8.682;2022-11-21T01:06:39;7.20;99.90
2162;DHT22;1087;50.226;8.682;2022-11-21T01:09:04;7.20;99.90
2162;DHT22;1087;50.226;8.682;2022-11-21T01:11:31;7.20;99.90
2162;DHT22;1087;50.226;8.682;2022-11-21T01:13:56;7.10;99.90
2162;DHT22;1087;50.226;8.682;2022-11-21T01:16:24;7.10;99.90
2162;DHT22;1087;50.226;8.682;2022-11-21T01:18:51;7.10;99.90
2162;DHT22;1087;50.226;8.682;2022-11-21T01:21:19;7.10;99.90
2162;DHT22;1087;50.226;8.682;2022-11-21T01:23:45;7.10;99.90
2162;DHT22;1087;50.226;8.682;2022-11-21T01:26:13;7.10;99.90
2162;DHT22;1087;50.226;8.682;2022-11-21T01:28:39;7.20;99.90
2162;DHT22;1087;50.226;8.682;2022-11-21T01:31:06;7.30;99.90
2162;DHT22;1087;50.226;8.682;2022-11-21T01:33:32;7.30;99.90
2162;DHT22;1087;50.226;8.682;2022-11-21T01:38:33;7.30;99.90
2162;DHT22;1087;50.226;8.682;2022-11-21T01:40:59;7.40;99.90
2162;DHT22;1087;50.226;8.682;2022-11-21T01:43:25;7.40;99.90
2162;DHT22;1087;50.226;8.682;2022-11-21T01:45:55;7.40;99.90
2162;DHT22;1087;50.226;8.682;2022-11-21T01:51:28;7.40;99.90
2162;DHT22;1087;50.226;8.682;2022-11-21T01:54:03;7.40;99.90
2162;DHT22;1087;50.226;8.682;2022-11-21T01:56:38;7.40;99.90
2162;DHT22;1087;50.226;8.682;2022-11-21T01:59:07;7.40;99.90
2162;DHT22;1087;50.226;8.682;2022-11-21T02:01:34;7.40;99.90
2162;DHT22;1087;50.226;8.682;2022-11-21T02:04:01;7.40;99.90
2162;DHT22;1087;50.226;8.682;2022-11-21T02:06:28;7.40;99.90
2162;DHT22;1087;50.226;8.682;2022-11-21T02:08:56;7.40;99.90
2162;DHT22;1087;50.226;8.682;2022-11-21T02:11:29;7.30;99.90
2162;DHT22;1087;50.226;8.682;2022-11-21T02:13:57;7.30;99.90
2162;DHT22;1087;50.226;8.682;2022-11-21T02:16:24;7.30;99.90
2162;DHT22;1087;50.226;8.682;2022-11-21T02:18:50;7.20;99.90
2162;DHT22;1087;50.226;8.682;2022-11-21T02:21:31;7.10;99.90
2162;DHT22;1087;50.226;8.682;2022-11-21T02:24:32;7.20;99.90
2162;DHT22;1087;50.226;8.682;2022-11-21T02:27:00;7.10;99.90
2162;DHT22;1087;50.226;8.682;2022-11-21T02:29:26;7.10;99.90
2162;DHT22;1087;50.226;8.682;2022-11-21T02:31:52;7.20;99.90
2162;DHT22;1087;50.226;8.682;2022-11-21T02:34:18;7.30;99.90
2162;DHT22;1087;50.226;8.682;2022-11-21T02:36:46;7.30;99.90
2162;DHT22;1087;50.226;8.682;2022-11-21T02:39:24;7.30;99.90
2162;DHT22;1087;50.226;8.682;2022-11-21T02:47:39;7.30;99.90
2162;DHT22;1087;50.226;8.682;2022-11-21T02:50:13;7.40;99.90
2162;DHT22;1087;50.226;8.682;2022-11-21T02:52:39;7.30;99.90
2162;DHT22;1087;50.226;8.682;2022-11-21T02:55:05;7.40;99.90
2162;DHT22;1087;50.226;8.682;2022-11-21T02:57:31;7.40;99.90
2162;DHT22;1087;50.226;8.682;2022-11-21T02:59:57;7.40;99.90
2162;DHT22;1087;50.226;8.682;2022-11-21T03:02:22;7.30;99.90
2162;DHT22;1087;50.226;8.682;2022-11-21T03:04:48;7.40;99.90
2162;DHT22;1087;50.226;8.682;2022-11-21T03:07:13;7.40;99.90
2162;DHT22;1087;50.226;8.682;2022-11-21T03:09:39;7.30;99.90
2162;DHT22;1087;50.226;8.682;2022-11-21T03:12:08;7.40;99.90
2162;DHT22;1087;50.226;8.682;2022-11-21T03:14:35;7.40;99.90
2162;DHT22;1087;50.226;8.682;2022-11-21T03:17:00;7.40;99.90
2162;DHT22;1087;50.226;8.682;2022-11-21T03:19:26;7.30;99.90
2162;DHT22;1087;50.226;8.682;2022-11-21T03:21:52;7.30;99.90
2162;DHT22;1087;50.226;8.682;2022-11-21T03:24:17;7.40;99.90
2162;DHT22;1087;50.226;8.682;2022-11-21T03:26:43;7.40;99.90
2162;DHT22;1087;50.226;8.682;2022-11-21T03:29:08;7.50;99.90
2162;DHT22;1087;50.226;8.682;2022-11-21T03:31:34;7.60;99.90
2162;DHT22;1087;50.226;8.682;2022-11-21T03:34:00;7.60;99.90
2162;DHT22;1087;50.226;8.682;2022-11-21T03:36:25;7.60;99.90
2162;DHT22;1087;50.226;8.682;2022-11-21T03:38:51;7.50;99.90
2162;DHT22;1087;50.226;8.682;2022-11-21T03:41:16;7.50;99.90
2162;DHT22;1087;50.226;8.682;2022-11-21T03:43:55;7.50;99.90
2162;DHT22;1087;50.226;8.682;2022-11-21T03:46:21;7.40;99.90
2162;DHT22;1087;50.226;8.682;2022-11-21T03:48:46;7.40;99.90
2162;DHT22;1087;50.226;8.682;2022-11-21T03:51:12;7.30;99.90
2162;DHT22;1087;50.226;8.682;2022-11-21T03:53:37;7.40;99.90
2162;DHT22;1087;50.226;8.682;2022-11-21T03:56:03;7.40;99.90
2162;DHT22;1087;50.226;8.682;2022-11-21T03:58:28;7.40;99.90
2162;DHT22;1087;50.226;8.682;2022-11-21T04:00:54;7.30;99.90
2162;DHT22;1087;50.226;8.682;2022-11-21T04:03:19;7.40;99.90
2162;DHT22;1087;50.226;8.682;2022-11-21T04:05:45;7.40;99.90
2162;DHT22;1087;50.226;8.682;2022-11-21T04:08:10;7.40;99.90
2162;DHT22;1087;50.226;8.682;2022-11-21T04:10:36;7.40;99.90
2162;DHT22;1087;50.226;8.682;2022-11-21T04:13:01;7.50;99.90
2162;DHT22;1087;50.226;8.682;2022-11-21T04:15:27;7.50;99.90
2162;DHT22;1087;50.226;8.682;2022-11-21T04:17:52;7.60;99.90
2162;DHT22;1087;50.226;8.682;2022-11-21T04:20:18;7.40;99.90
2162;DHT22;1087;50.226;8.682;2022-11-21T04:22:43;7.30;99.90
2162;DHT22;1087;50.226;8.682;2022-11-21T04:25:09;7.40;99.90
2162;DHT22;1087;50.226;8.682;2022-11-21T04:27:35;7.30;99.90
2162;DHT22;1087;50.226;8.682;2022-11-21T04:30:00;7.50;99.90
2162;DHT22;1087;50.226;8.682;2022-11-21T04:32:26;7.50;99.90
2162;DHT22;1087;50.226;8.682;2022-11-21T04:34:51;7.60;99.90
2162;DHT22;1087;50.226;8.682;2022-11-21T04:37:17;7.60;99.90
2162;DHT22;1087;50.226;8.682;2022-11-21T04:39:42;7.60;99.90
2162;DHT22;1087;50.226;8.682;2022-11-21T04:42:08;7.70;99.90
2162;DHT22;1087;50.226;8.682;2022-11-21T04:44:33;7.70;99.90
2162;DHT22;1087;50.226;8.682;2022-11-21T04:46:59;7.70;99.90
2162;DHT22;1087;50.226;8.682;2022-11-21T04:49:24;7.80;99.90
2162;DHT22;1087;50.226;8.682;2022-11-21T04:51:50;7.70;99.90
2162;DHT22;1087;50.226;8.682;2022-11-21T04:54:15;7.70;99.90
2162;DHT22;1087;50.226;8.682;2022-11-21T04:56:41;7.60;99.90
2162;DHT22;1087;50.226;8.682;2022-11-21T04:59:06;7.60;99.90
2162;DHT22;1087;50.226;8.682;2022-11-21T05:01:33;7.50;99.90
2162;DHT22;1087;50.226;8.682;2022-11-21T05:03:58;7.50;99.90
2162;DHT22;1087;50.226;8.682;2022-11-21T05:06:24;7.50;99.90
2162;DHT22;1087;50.226;8.682;2022-11-21T05:08:49;7.70;99.90
2162;DHT22;1087;50.226;8.682;2022-11-21T05:11:15;7.70;99.90
2162;DHT22;1087;50.226;8.682;2022-11-21T05:13:59;7.70;99.90
2162;DHT22;1087;50.226;8.682;2022-11-21T05:16:24;7.70;99.90
2162;DHT22;1087;50.226;8.682;2022-11-21T05:18:50;7.70;99.90
2162;DHT22;1087;50.226;8.682;2022-11-21T05:21:15;7.80;99.90
2162;DHT22;1087;50.226;8.682;2022-11-21T05:23:41;7.60;99.90
2162;DHT22;1087;50.226;8.682;2022-11-21T05:26:06;7.70;99.90
2162;DHT22;1087;50.226;8.682;2022-11-21T05:28:32;7.60;99.90
2162;DHT22;1087;50.226;8.682;2022-11-21T05:30:57;7.60;99.90
2162;DHT22;1087;50.226;8.682;2022-11-21T05:33:23;7.60;99.90
2162;DHT22;1087;50.226;8.682;2022-11-21T05:35:48;7.60;99.90
2162;DHT22;1087;50.226;8.682;2022-11-21T05:38:14;7.60;99.90
2162;DHT22;1087;50.226;8.682;2022-11-21T05:40:39;7.50;99.90
2162;DHT22;1087;50.226;8.682;2022-11-21T05:43:05;7.60;99.90
2162;DHT22;1087;50.226;8.682;2022-11-21T05:45:49;7.60;99.90
2162;DHT22;1087;50.226;8.682;2022-11-21T05:48:15;7.70;99.90
2162;DHT22;1087;50.226;8.682;2022-11-21T05:50:40;7.70;99.90
2162;DHT22;1087;50.226;8.682;2022-11-21T05:53:06;7.60;99.90
2162;DHT22;1087;50.226;8.682;2022-11-21T05:55:34;7.70;99.90
2162;DHT22;1087;50.226;8.682;2022-11-21T05:58:00;7.50;99.90
2162;DHT22;1087;50.226;8.682;2022-11-21T06:00:27;7.60;99.90
2162;DHT22;1087;50.226;8.682;2022-11-21T06:02:53;7.70;99.90
2162;DHT22;1087;50.226;8.682;2022-11-21T06:05:37;7.60;99.90
2162;DHT22;1087;50.226;8.682;2022-11-21T06:08:02;7.70;99.90
2162;DHT22;1087;50.226;8.682;2022-11-21T06:10:28;7.70;99.90
2162;DHT22;1087;50.226;8.682;2022-11-21T06:12:53;7.70;99.90
2162;DHT22;1087;50.226;8.682;2022-11-21T06:15:19;7.80;99.90
2162;DHT22;1087;50.226;8.682;2022-11-21T06:17:44;7.80;99.90
2162;DHT22;1087;50.226;8.682;2022-11-21T06:20:10;7.80;99.90
2162;DHT22;1087;50.226;8.682;2022-11-21T06:22:35;7.80;99.90
2162;DHT22;1087;50.226;8.682;2022-11-21T06:25:01;7.80;99.90
2162;DHT22;1087;50.226;8.682;2022-11-21T06:27:29;7.80;99.90
2162;DHT22;1087;50.226;8.682;2022-11-21T06:29:55;7.80;99.90
2162;DHT22;1087;50.226;8.682;2022-11-21T06:32:20;7.80;99.90
2162;DHT22;1087;50.226;8.682;2022-11-21T06:34:46;7.70;99.90
2162;DHT22;1087;50.226;8.682;2022-11-21T06:37:11;7.70;99.90
2162;DHT22;1087;50.226;8.682;2022-11-21T06:39:37;7.50;99.90
2162;DHT22;1087;50.226;8.682;2022-11-21T06:42:02;7.40;99.90
2162;DHT22;1087;50.226;8.682;2022-11-21T06:44:28;7.30;99.90
2162;DHT22;1087;50.226;8.682;2022-11-21T06:46:54;7.30;99.90
2162;DHT22;1087;50.226;8.682;2022-11-21T06:49:19;7.30;99.90
2162;DHT22;1087;50.226;8.682;2022-11-21T06:51:46;7.40;99.90
2162;DHT22;1087;50.226;8.682;2022-11-21T06:54:12;7.50;99.90
2162;DHT22;1087;50.226;8.682;2022-11-21T06:56:37;7.40;99.90
2162;DHT22;1087;50.226;8.682;2022-11-21T06:59:03;7.40;99.90
2162;DHT22;1087;50.226;8.682;2022-11-21T07:01:28;7.40;99.90
2162;DHT22;1087;50.226;8.682;2022-11-21T07:03:54;7.40;99.90
2162;DHT22;1087;50.226;8.682;2022-11-21T07:06:20;7.40;99.90
2162;DHT22;1087;50.226;8.682;2022-11-21T07:08:45;7.30;99.90
2162;DHT22;1087;50.226;8.682;2022-11-21T07:11:12;7.30;99.90
2162;DHT22;1087;50.226;8.682;2022-11-21T07:13:38;7.40;99.90
2162;DHT22;1087;50.226;8.682;2022-11-21T07:16:08;7.40;99.90
2162;DHT22;1087;50.226;8.682;2022-11-21T07:18:34;7.40;99.90
2162;DHT22;1087;50.226;8.682;2022-11-21T07:21:04;7.40;99.90
2162;DHT22;1087;50.226;8.682;2022-11-21T07:23:31;7.30;99.90
2162;DHT22;1087;50.226;8.682;2022-11-21T07:26:01;7.20;99.90
2162;DHT22;1087;50.226;8.682;2022-11-21T07:28:30;7.20;99.90
2162;DHT22;1087;50.226;8.682;2022-11-21T07:30:57;7.30;99.90
2162;DHT22;1087;50.226;8.682;2022-11-21T07:33:23;7.30;99.90
2162;DHT22;1087;50.226;8.682;2022-11-21T07:35:48;7.20;99.90
2162;DHT22;1087;50.226;8.682;2022-11-21T07:38:14;7.30;99.90
2162;DHT22;1087;50.226;8.682;2022-11-21T07:40:39;7.40;99.90
2162;DHT22;1087;50.226;8.682;2022-11-21T07:43:05;7.40;99.90
2162;DHT22;1087;50.226;8.682;2022-11-21T07:45:32;7.40;99.90
2162;DHT22;1087;50.226;8.682;2022-11-21T07:48:03;7.30;99.90
2162;DHT22;1087;50.226;8.682;2022-11-21T07:50:29;7.30;99.90
2162;DHT22;1087;50.226;8.682;2022-11-21T07:52:58;7.30;99.90
2162;DHT22;1087;50.226;8.682;2022-11-21T07:55:25;7.40;99.90
2162;DHT22;1087;50.226;8.682;2022-11-21T08:00:23;7.40;99.90
2162;DHT22;1087;50.226;8.682;2022-11-21T08:02:49;7.40;99.90
2162;DHT22;1087;50.226;8.682;2022-11-21T08:05:14;7.50;99.90
2162;DHT22;1087;50.226;8.682;2022-11-21T08:07:40;7.50;99.90
2162;DHT22;1087;50.226;8.682;2022-11-21T08:10:05;7.60;99.90
2162;DHT22;1087;50.226;8.682;2022-11-21T08:12:32;7.60;99.90
2162;DHT22;1087;50.226;8.682;2022-11-21T08:14:57;7.50;99.90
2162;DHT22;1087;50.226;8.682;2022-11-21T08:17:25;7.50;99.90
2162;DHT22;1087;50.226;8.682;2022-11-21T08:19:51;7.60;99.90
2162;DHT22;1087;50.226;8.682;2022-11-21T08:22:16;7.60;99.90
2162;DHT22;1087;50.226;8.682;2022-11-21T08:24:42;7.60;99.90
2162;DHT22;1087;50.226;8.682;2022-11-21T08:27:07;7.60;99.90
2162;DHT22;1087;50.226;8.682;2022-11-21T08:29:33;7.70;99.90
2162;DHT22;1087;50.226;8.682;2022-11-21T08:32:00;7.70;99.90
2162;DHT22;1087;50.226;8.682;2022-11-21T08:34:25;7.70;99.90
2162;DHT22;1087;50.226;8.682;2022-11-21T08:36:51;7.80;99.90
2162;DHT22;1087;50.226;8.682;2022-11-21T08:39:17;7.80;99.90
2162;DHT22;1087;50.226;8.682;2022-11-21T08:41:43;7.80;99.90
2162;DHT22;1087;50.226;8.682;2022-11-21T08:44:27;7.90;99.90
2162;DHT22;1087;50.226;8.682;2022-11-21T08:46:53;8.00;99.90
2162;DHT22;1087;50.226;8.682;2022-11-21T08:49:19;8.00;99.90
2162;DHT22;1087;50.226;8.682;2022-11-21T08:51:45;8.10;99.90
2162;DHT22;1087;50.226;8.682;2022-11-21T08:54:14;8.10;99.90
2162;DHT22;1087;50.226;8.682;2022-11-21T08:56:40;8.10;99.90
2162;DHT22;1087;50.226;8.682;2022-11-21T08:59:05;8.10;99.90
2162;DHT22;1087;50.226;8.682;2022-11-21T09:01:31;8.10;99.90
2162;DHT22;1087;50.226;8.682;2022-11-21T09:03:57;8.10;99.90
2162;DHT22;1087;50.226;8.682;2022-11-21T09:06:22;8.00;99.90
2162;DHT22;1087;50.226;8.682;2022-11-21T09:08:48;8.00;99.90
2162;DHT22;1087;50.226;8.682;2022-11-21T09:11:13;8.10;99.90
2162;DHT22;1087;50.226;8.682;2022-11-21T09:13:39;8.10;99.90
2162;DHT22;1087;50.226;8.682;2022-11-21T09:16:04;8.20;99.90
2162;DHT22;1087;50.226;8.682;2022-11-21T09:18:52;8.20;99.90
2162;DHT22;1087;50.226;8.682;2022-11-21T09:21:18;8.30;99.90
2162;DHT22;1087;50.226;8.682;2022-11-21T09:23:44;8.40;99.90
2162;DHT22;1087;50.226;8.682;2022-11-21T09:26:10;8.40;99.90
2162;DHT22;1087;50.226;8.682;2022-11-21T09:28:36;8.30;99.90
2162;DHT22;1087;50.226;8.682;2022-11-21T09:31:03;8.30;99.90
2162;DHT22;1087;50.226;8.682;2022-11-21T09:33:29;8.30;99.90
2162;DHT22;1087;50.226;8.682;2022-11-21T09:35:57;8.30;99.90
2162;DHT22;1087;50.226;8.682;2022-11-21T09:38:23;8.20;99.90
2162;DHT22;1087;50.226;8.682;2022-11-21T09:40:51;8.20;99.90
2162;DHT22;1087;50.226;8.682;2022-11-21T09:46:00;8.20;99.90
2162;DHT22;1087;50.226;8.682;2022-11-21T09:48:32;8.10;99.90
2162;DHT22;1087;50.226;8.682;2022-11-21T09:51:04;8.10;99.90
2162;DHT22;1087;50.226;8.682;2022-11-21T09:53:38;8.20;99.90
2162;DHT22;1087;50.226;8.682;2022-11-21T09:56:13;8.30;99.90
2162;DHT22;1087;50.226;8.682;2022-11-21T10:01:42;8.40;99.90
2162;DHT22;1087;50.226;8.682;2022-11-21T10:04:07;8.50;99.90
2162;DHT22;1087;50.226;8.682;2022-11-21T10:12:20;8.80;99.90
2162;DHT22;1087;50.226;8.682;2022-11-21T10:15:25;8.80;99.90
2162;DHT22;1087;50.226;8.682;2022-11-21T10:20:44;8.80;99.90
2162;DHT22;1087;50.226;8.682;2022-11-21T10:29:37;9.00;99.90
2162;DHT22;1087;50.226;8.682;2022-11-21T10:31:38;8.90;99.90
2162;DHT22;1087;50.226;8.682;2022-11-21T10:34:13;8.70;99.90
2162;DHT22;1087;50.226;8.682;2022-11-21T10:36:42;8.80;99.90
2162;DHT22;1087;50.226;8.682;2022-11-21T10:39:34;9.00;99.90
2162;DHT22;1087;50.226;8.682;2022-11-21T10:44:39;9.00;99.90
2162;DHT22;1087;50.226;8.682;2022-11-21T10:47:30;9.00;99.90
2162;DHT22;1087;50.226;8.682;2022-11-21T10:50:18;9.00;99.90
2162;DHT22;1087;50.226;8.682;2022-11-21T10:52:53;8.90;99.90
2162;DHT22;1087;50.226;8.682;2022-11-21T10:55:21;9.00;99.90
2162;DHT22;1087;50.226;8.682;2022-11-21T10:57:48;9.10;99.90
2162;DHT22;1087;50.226;8.682;2022-11-21T11:00:20;9.20;99.90
2162;DHT22;1087;50.226;8.682;2022-11-21T11:05:23;9.20;99.90
2162;DHT22;1087;50.226;8.682;2022-11-21T11:08:07;9.20;99.90
2162;DHT22;1087;50.226;8.682;2022-11-21T11:16:01;9.20;99.90
2162;DHT22;1087;50.226;8.682;2022-11-21T11:18:27;9.20;99.90
2162;DHT22;1087;50.226;8.682;2022-11-21T11:21:10;9.10;99.90
2162;DHT22;1087;50.226;8.682;2022-11-21T11:23:36;9.20;99.90
2162;DHT22;1087;50.226;8.682;2022-11-21T11:26:01;9.10;99.90
2162;DHT22;1087;50.226;8.682;2022-11-21T11:28:35;9.20;99.90
2162;DHT22;1087;50.226;8.682;2022-11-21T11:31:00;9.10;99.90
2162;DHT22;1087;50.226;8.682;2022-11-21T11:33:35;9.10;99.90
2162;DHT22;1087;50.226;8.682;2022-11-21T11:36:52;9.20;99.90
2162;DHT22;1087;50.226;8.682;2022-11-21T11:38:59;9.10;99.90
2162;DHT22;1087;50.226;8.682;2022-11-21T11:44:54;9.20;99.90
2162;DHT22;1087;50.226;8.682;2022-11-21T11:47:57;9.20;99.90
2162;DHT22;1087;50.226;8.682;2022-11-21T11:50:29;9.10;99.90
2162;DHT22;1087;50.226;8.682;2022-11-21T11:58:26;9.10;99.90
2162;DHT22;1087;50.226;8.682;2022-11-21T12:01:01;9.10;99.90
2162;DHT22;1087;50.226;8.682;2022-11-21T12:03:56;9.10;99.90
2162;DHT22;1087;50.226;8.682;2022-11-21T12:06:52;9.10;99.90
2162;DHT22;1087;50.226;8.682;2022-11-21T12:12:09;9.10;99.90
2162;DHT22;1087;50.226;8.682;2022-11-21T12:15:02;9.00;99.90
2162;DHT22;1087;50.226;8.682;2022-11-21T12:20:48;9.00;99.90
2162;DHT22;1087;50.226;8.682;2022-11-21T12:23:16;9.00;99.90
2162;DHT22;1087;50.226;8.682;2022-11-21T12:28:44;9.10;99.90
2162;DHT22;1087;50.226;8.682;2022-11-21T12:37:03;9.00;99.90
2162;DHT22;1087;50.226;8.682;2022-11-21T12:42:26;9.00;99.90
2162;DHT22;1087;50.226;8.682;2022-11-21T12:45:30;9.10;99.90
2162;DHT22;1087;50.226;8.682;2022-11-21T12:51:23;9.90;99.90
2162;DHT22;1087;50.226;8.682;2022-11-21T12:59:56;10.20;99.90
2162;DHT22;1087;50.226;8.682;2022-11-21T13:02:28;10.00;99.90
2162;DHT22;1087;50.226;8.682;2022-11-21T13:04:56;9.90;99.90
2162;DHT22;1087;50.226;8.682;2022-11-21T13:07:25;9.80;99.90
2162;DHT22;1087;50.226;8.682;2022-11-21T13:09:55;9.70;99.90
2162;DHT22;1087;50.226;8.682;2022-11-21T13:12:36;9.60;99.90
2162;DHT22;1087;50.226;8.682;2022-11-21T13:17:42;9.50;99.90
2162;DHT22;1087;50.226;8.682;2022-11-21T13:22:48;9.50;99.90
2162;DHT22;1087;50.226;8.682;2022-11-21T13:28:03;9.60;99.90
2162;DHT22;1087;50.226;8.682;2022-11-21T13:30:53;9.70;99.90
2162;DHT22;1087;50.226;8.682;2022-11-21T13:47:40;9.90;99.90
2162;DHT22;1087;50.226;8.682;2022-11-21T13:58:18;9.70;99.90
2162;DHT22;1087;50.226;8.682;2022-11-21T14:07:20;9.70;99.90
2162;DHT22;1087;50.226;8.682;2022-11-21T14:09:48;9.70;99.90
2162;DHT22;1087;50.226;8.682;2022-11-21T14:18:04;9.80;99.90
2162;DHT22;1087;50.226;8.682;2022-11-21T14:20:48;9.80;99.90
2162;DHT22;1087;50.226;8.682;2022-11-21T14:23:19;9.80;99.90
2162;DHT22;1087;50.226;8.682;2022-11-21T14:25:48;9.80;99.90
2162;DHT22;1087;50.226;8.682;2022-11-21T14:28:20;9.80;99.90
2162;DHT22;1087;50.226;8.682;2022-11-21T14:30:55;9.90;99.90
2162;DHT22;1087;50.226;8.682;2022-11-21T14:33:30;9.90;99.90
2162;DHT22;1087;50.226;8.682;2022-11-21T14:36:12;9.80;99.90
2162;DHT22;1087;50.226;8.682;2022-11-21T14:38:45;9.80;99.90
2162;DHT22;1087;50.226;8.682;2022-11-21T14:46:25;9.80;99.90
2162;DHT22;1087;50.226;8.682;2022-11-21T14:48:51;9.80;99.90
2162;DHT22;1087;50.226;8.682;2022-11-21T14:51:20;9.80;99.90
2162;DHT22;1087;50.226;8.682;2022-11-21T14:53:47;9.80;99.90
2162;DHT22;1087;50.226;8.682;2022-11-21T14:56:33;9.80;99.90
2162;DHT22;1087;50.226;8.682;2022-11-21T14:59:01;9.80;99.90
2162;DHT22;1087;50.226;8.682;2022-11-21T15:01:30;9.80;99.90
2162;DHT22;1087;50.226;8.682;2022-11-21T15:03:58;9.80;99.90
2162;DHT22;1087;50.226;8.682;2022-11-21T15:06:24;9.70;99.90
2162;DHT22;1087;50.226;8.682;2022-11-21T15:08:52;9.70;99.90
2162;DHT22;1087;50.226;8.682;2022-11-21T15:11:22;9.70;99.90
2162;DHT22;1087;50.226;8.682;2022-11-21T15:13:51;9.70;99.90
2162;DHT22;1087;50.226;8.682;2022-11-21T15:16:18;9.70;99.90
2162;DHT22;1087;50.226;8.682;2022-11-21T15:18:46;9.70;99.90
2162;DHT22;1087;50.226;8.682;2022-11-21T15:21:13;9.70;99.90
2162;DHT22;1087;50.226;8.682;2022-11-21T15:23:40;9.60;99.90
2162;DHT22;1087;50.226;8.682;2022-11-21T15:26:27;9.60;99.90
2162;DHT22;1087;50.226;8.682;2022-11-21T15:28:55;9.60;99.90
2162;DHT22;1087;50.226;8.682;2022-11-21T15:31:21;9.50;99.90
2162;DHT22;1087;50.226;8.682;2022-11-21T15:34:00;9.60;99.90
2162;DHT22;1087;50.226;8.682;2022-11-21T15:36:27;9.50;99.90
2162;DHT22;1087;50.226;8.682;2022-11-21T15:39:04;9.40;99.90
2162;DHT22;1087;50.226;8.682;2022-11-21T15:41:35;9.40;99.90
2162;DHT22;1087;50.226;8.682;2022-11-21T15:46:29;9.30;99.90
2162;DHT22;1087;50.226;8.682;2022-11-21T15:48:56;9.30;99.90
2162;DHT22;1087;50.226;8.682;2022-11-21T15:51:28;9.30;99.90
2162;DHT22;1087;50.226;8.682;2022-11-21T15:53:55;9.20;99.90
2162;DHT22;1087;50.226;8.682;2022-11-21T15:56:21;9.20;99.90
2162;DHT22;1087;50.226;8.682;2022-11-21T15:58:49;9.20;99.90
2162;DHT22;1087;50.226;8.682;2022-11-21T16:01:24;9.20;99.90
2162;DHT22;1087;50.226;8.682;2022-11-21T16:03:55;9.20;99.90
2162;DHT22;1087;50.226;8.682;2022-11-21T16:06:21;9.20;99.90
2162;DHT22;1087;50.226;8.682;2022-11-21T16:08:47;9.10;99.90
2162;DHT22;1087;50.226;8.682;2022-11-21T16:11:30;9.10;99.90
2162;DHT22;1087;50.226;8.682;2022-11-21T16:13:58;9.10;99.90
2162;DHT22;1087;50.226;8.682;2022-11-21T16:16:27;9.10;99.90
2162;DHT22;1087;50.226;8.682;2022-11-21T16:18:54;9.00;99.90
2162;DHT22;1087;50.226;8.682;2022-11-21T16:21:20;9.00;99.90
2162;DHT22;1087;50.226;8.682;2022-11-21T16:23:45;9.10;99.90
2162;DHT22;1087;50.226;8.682;2022-11-21T16:26:11;9.00;99.90
2162;DHT22;1087;50.226;8.682;2022-11-21T16:28:36;9.00;99.90
2162;DHT22;1087;50.226;8.682;2022-11-21T16:31:03;8.90;99.90
2162;DHT22;1087;50.226;8.682;2022-11-21T16:33:29;8.90;99.90
2162;DHT22;1087;50.226;8.682;2022-11-21T16:35:55;8.90;99.90
2162;DHT22;1087;50.226;8.682;2022-11-21T16:38:27;8.80;99.90
2162;DHT22;1087;50.226;8.682;2022-11-21T16:40:56;8.80;99.90
2162;DHT22;1087;50.226;8.682;2022-11-21T16:43:23;8.90;99.90
2162;DHT22;1087;50.226;8.682;2022-11-21T16:45:49;8.80;99.90
2162;DHT22;1087;50.226;8.682;2022-11-21T16:48:15;8.80;99.90
2162;DHT22;1087;50.226;8.682;2022-11-21T16:50:40;8.90;99.90
2162;DHT22;1087;50.226;8.682;2022-11-21T16:53:06;8.80;99.90
2162;DHT22;1087;50.226;8.682;2022-11-21T16:55:31;8.80;99.90
2162;DHT22;1087;50.226;8.682;2022-11-21T16:57:57;8.80;99.90
2162;DHT22;1087;50.226;8.682;2022-11-21T17:00:24;8.80;99.90
2162;DHT22;1087;50.226;8.682;2022-11-21T17:02:50;8.80;99.90
2162;DHT22;1087;50.226;8.682;2022-11-21T17:05:16;8.80;99.90
2162;DHT22;1087;50.226;8.682;2022-11-21T17:07:42;8.70;99.90
2162;DHT22;1087;50.226;8.682;2022-11-21T17:10:09;8.70;99.90
2162;DHT22;1087;50.226;8.682;2022-11-21T17:12:36;8.60;99.90
2162;DHT22;1087;50.226;8.682;2022-11-21T17:15:04;8.60;99.90
2162;DHT22;1087;50.226;8.682;2022-11-21T17:17:29;8.60;99.90
2162;DHT22;1087;50.226;8.682;2022-11-21T17:19:55;8.60;99.90
2162;DHT22;1087;50.226;8.682;2022-11-21T17:22:20;8.50;99.90
2162;DHT22;1087;50.226;8.682;2022-11-21T17:24:47;8.50;99.90
2162;DHT22;1087;50.226;8.682;2022-11-21T17:27:12;8.50;99.90
2162;DHT22;1087;50.226;8.682;2022-11-21T17:29:38;8.40;99.90
2162;DHT22;1087;50.226;8.682;2022-11-21T17:32:03;8.40;99.90
2162;DHT22;1087;50.226;8.682;2022-11-21T17:34:29;8.50;99.90
2162;DHT22;1087;50.226;8.682;2022-11-21T17:36:54;8.50;99.90
2162;DHT22;1087;50.226;8.682;2022-11-21T17:39:20;8.40;99.90
2162;DHT22;1087;50.226;8.682;2022-11-21T17:41:45;8.40;99.90
2162;DHT22;1087;50.226;8.682;2022-11-21T17:44:12;8.40;99.90
2162;DHT22;1087;50.226;8.682;2022-11-21T17:46:39;8.50;99.90
2162;DHT22;1087;50.226;8.682;2022-11-21T17:49:05;8.40;99.90
2162;DHT22;1087;50.226;8.682;2022-11-21T17:51:32;8.40;99.90
2162;DHT22;1087;50.226;8.682;2022-11-21T17:53:59;8.30;99.90
2162;DHT22;1087;50.226;8.682;2022-11-21T17:56:27;8.30;99.90
2162;DHT22;1087;50.226;8.682;2022-11-21T17:58:53;8.30;99.90
2162;DHT22;1087;50.226;8.682;2022-11-21T18:01:18;8.30;99.90
2162;DHT22;1087;50.226;8.682;2022-11-21T18:03:52;8.30;99.90
2162;DHT22;1087;50.226;8.682;2022-11-21T18:06:18;8.30;99.90
2162;DHT22;1087;50.226;8.682;2022-11-21T18:08:45;8.30;99.90
2162;DHT22;1087;50.226;8.682;2022-11-21T18:11:12;8.40;99.90
2162;DHT22;1087;50.226;8.682;2022-11-21T18:13:38;8.40;99.90
2162;DHT22;1087;50.226;8.682;2022-11-21T18:16:15;8.40;99.90
2162;DHT22;1087;50.226;8.682;2022-11-21T18:18:41;8.40;99.90
2162;DHT22;1087;50.226;8.682;2022-11-21T18:21:15;8.40;99.90
2162;DHT22;1087;50.226;8.682;2022-11-21T18:23:41;8.30;99.90
2162;DHT22;1087;50.226;8.682;2022-11-21T18:28:36;8.30;99.90
2162;DHT22;1087;50.226;8.682;2022-11-21T18:31:06;8.30;99.90
2162;DHT22;1087;50.226;8.682;2022-11-21T18:33:32;8.30;99.90
2162;DHT22;1087;50.226;8.682;2022-11-21T18:35:57;8.30;99.90
2162;DHT22;1087;50.226;8.682;2022-11-21T18:38:23;8.40;99.90